sim
Sign-in with your pilot id or email,
or register
Callsign
Passwort

Schedule Details

Flight Number: RYR1246 (2)
Departure: Athens Eleftherios Venizelos (LGAV) at 16:10
Arrival: Bratislava M. R. Stefanik Airport (LZIB) at 18:25
Route: Ryanair Passenger Schedule. Enter filed route here before submitting Pirep.

Weather Information
Getting current METAR information for LGAV 232050Z 34007KT 300V010 CAVOK 20/08 Q1019 NOSIG
Getting current METAR information for LZIB 232100Z 05003KT CAVOK 13/10 Q1017

Schedule Frequency

Route Map